createdAt,value
2018-05-13T00:02:07.280Z,101344.48
2018-05-13T00:04:36.879Z,101341.55
2018-05-13T00:07:05.963Z,101354.95
2018-05-13T00:09:35.048Z,101364.12
2018-05-13T00:12:04.095Z,101369.59
2018-05-13T00:14:32.838Z,101359.52
2018-05-13T00:17:02.809Z,101353.25
2018-05-13T00:19:31.307Z,101350.33
2018-05-13T00:22:00.271Z,101356.20
2018-05-13T00:24:28.594Z,101354.08
2018-05-13T00:26:57.091Z,101351.16
2018-05-13T00:29:26.266Z,101348.62
2018-05-13T00:31:54.580Z,101347.38
2018-05-13T00:34:23.714Z,101349.06
2018-05-13T00:36:52.003Z,101345.70
2018-05-13T00:39:20.307Z,101344.03
2018-05-13T00:41:48.655Z,101343.22
2018-05-13T00:44:17.139Z,101344.46
2018-05-13T00:46:45.482Z,101336.92
2018-05-13T00:49:13.795Z,101344.86
2018-05-13T00:51:42.160Z,101339.00
2018-05-13T00:54:28.448Z,101342.31
2018-05-13T00:56:56.819Z,101336.91
2018-05-13T00:59:26.007Z,101334.80
2018-05-13T01:01:56.623Z,101342.70
2018-05-13T01:04:25.721Z,101336.88
2018-05-13T01:06:54.771Z,101334.36
2018-05-13T01:09:23.075Z,101330.20
2018-05-13T01:11:51.351Z,101330.61
2018-05-13T01:14:19.642Z,101329.36
2018-05-13T01:16:47.943Z,101326.86
2018-05-13T01:19:17.067Z,101322.22
2018-05-13T01:21:45.359Z,101325.14
2018-05-13T01:24:13.658Z,101325.14
2018-05-13T01:26:42.619Z,101320.16
2018-05-13T01:29:11.187Z,101314.30
2018-05-13T01:31:39.476Z,101318.11
2018-05-13T01:34:08.082Z,101315.58
2018-05-13T01:36:37.695Z,101310.16
2018-05-13T01:39:06.512Z,101301.36
2018-05-13T01:41:34.858Z,101301.80
2018-05-13T01:44:04.110Z,101299.70
2018-05-13T01:46:33.254Z,101298.45
2018-05-13T01:49:01.527Z,101303.03
2018-05-13T01:51:30.522Z,101303.85
2018-05-13T01:53:58.839Z,101299.70
2018-05-13T01:56:27.435Z,101290.51
2018-05-13T01:58:55.719Z,101290.49
2018-05-13T02:01:25.078Z,101289.27
2018-05-13T02:03:53.766Z,101285.06
2018-05-13T02:06:22.066Z,101289.64
2018-05-13T02:08:51.135Z,101290.06
2018-05-13T02:11:19.463Z,101283.37
2018-05-13T02:13:48.719Z,101276.68
2018-05-13T02:16:17.101Z,101275.02
2018-05-13T02:18:46.666Z,101274.63
2018-05-13T02:21:15.738Z,101270.43
2018-05-13T02:23:44.878Z,101270.01
2018-05-13T02:26:13.312Z,101277.11
2018-05-13T02:28:42.275Z,101269.15
2018-05-13T02:31:10.584Z,101268.31
2018-05-13T02:33:38.860Z,101267.06
2018-05-13T02:36:07.211Z,101266.22
2018-05-13T02:38:37.156Z,101267.06
2018-05-13T02:41:06.955Z,101259.11
2018-05-13T02:43:36.020Z,101264.13
2018-05-13T02:46:04.340Z,101264.52
2018-05-13T02:48:33.442Z,101261.60
2018-05-13T02:51:03.324Z,101261.17
2018-05-13T02:53:31.718Z,101256.97
2018-05-13T02:56:00.012Z,101253.22
2018-05-13T02:58:28.366Z,101258.64
2018-05-13T03:00:56.683Z,101251.94
2018-05-13T03:03:26.151Z,101254.01
2018-05-13T03:05:54.431Z,101251.15
2018-05-13T03:08:22.716Z,101251.55
2018-05-13T03:10:51.925Z,101245.25
2018-05-13T03:13:20.767Z,101246.52
2018-05-13T03:15:49.087Z,101252.36
2018-05-13T03:18:18.912Z,101247.36
2018-05-13T03:20:47.230Z,101239.81
2018-05-13T03:23:15.507Z,101244.84
2018-05-13T03:25:43.989Z,101245.67
2018-05-13T03:28:12.855Z,101249.45
2018-05-13T03:30:41.910Z,101247.77
2018-05-13T03:33:10.610Z,101247.80
2018-05-13T03:35:40.417Z,101254.04
2018-05-13T03:38:08.696Z,101248.62
2018-05-13T03:40:37.240Z,101249.45
2018-05-13T03:43:05.745Z,101253.22
2018-05-13T03:45:34.035Z,101251.97
2018-05-13T03:48:02.646Z,101248.20
2018-05-13T03:50:31.398Z,101256.56
2018-05-13T03:53:00.612Z,101253.22
2018-05-13T03:55:28.964Z,101257.42
2018-05-13T03:57:58.336Z,101253.63
2018-05-13T04:00:27.385Z,101246.14
2018-05-13T04:02:56.655Z,101252.00
2018-05-13T04:05:25.698Z,101239.05
2018-05-13T04:11:29.273Z,101226.94
2018-05-13T04:14:15.498Z,101226.93
2018-05-13T04:16:44.722Z,101233.19
2018-05-13T04:19:13.348Z,101220.25
2018-05-13T04:21:42.677Z,101220.66
2018-05-13T04:24:11.082Z,101206.48
2018-05-13T04:26:39.367Z,101222.34
2018-05-13T04:35:07.068Z,101227.39
2018-05-13T04:37:36.660Z,101217.34
2018-05-13T04:40:05.517Z,101218.16
2018-05-13T04:42:35.320Z,101216.94
2018-05-13T04:45:04.449Z,101212.30
2018-05-13T04:47:33.010Z,101216.52
2018-05-13T04:50:02.788Z,101213.98
2018-05-13T04:52:31.106Z,101210.64
2018-05-13T04:54:59.411Z,101215.25
2018-05-13T04:57:28.051Z,101211.50
2018-05-13T04:59:56.997Z,101208.55
2018-05-13T05:02:26.146Z,101212.72
2018-05-13T05:04:55.295Z,101209.81
2018-05-13T05:07:24.240Z,101211.89
2018-05-13T05:09:54.111Z,101216.08
2018-05-13T05:12:23.059Z,101224.41
2018-05-13T05:14:52.787Z,101220.24
2018-05-13T05:17:21.616Z,101221.09
2018-05-13T05:19:49.911Z,101218.55
2018-05-13T05:22:18.261Z,101221.03
2018-05-13T05:24:47.370Z,101230.64
2018-05-13T05:27:15.947Z,101233.52
2018-05-13T05:29:44.274Z,101230.97
2018-05-13T05:32:14.486Z,101234.73
2018-05-13T05:34:43.626Z,101228.41
2018-05-13T05:37:12.319Z,101230.44
2018-05-13T05:39:41.002Z,101221.59
2018-05-13T05:42:09.299Z,101229.51
2018-05-13T05:44:37.882Z,101229.97
2018-05-13T05:47:06.449Z,101223.16
2018-05-13T05:49:35.480Z,101225.59
2018-05-13T05:52:04.163Z,101220.52
2018-05-13T05:54:32.664Z,101218.02
2018-05-13T05:57:02.483Z,101221.30
2018-05-13T05:59:32.411Z,101219.48
2018-05-13T06:02:01.459Z,101219.87
2018-05-13T06:04:29.731Z,101219.41
2018-05-13T06:06:58.038Z,101221.86
2018-05-13T06:09:26.446Z,101217.70
2018-05-13T06:11:55.494Z,101215.91
2018-05-13T06:14:23.839Z,101220.47
2018-05-13T06:16:52.120Z,101214.17
2018-05-13T06:19:20.411Z,101211.57
2018-05-13T06:21:48.802Z,101213.13
2018-05-13T06:24:17.078Z,101206.73
2018-05-13T06:26:45.387Z,101210.48
2018-05-13T06:29:13.830Z,101208.00
2018-05-13T06:31:42.090Z,101209.13
2018-05-13T06:34:11.207Z,101209.58
2018-05-13T06:36:39.511Z,101214.13
2018-05-13T06:39:07.918Z,101208.95
2018-05-13T06:41:37.730Z,101208.42
2018-05-13T06:44:06.783Z,101207.54
2018-05-13T06:46:35.085Z,101205.90
2018-05-13T06:49:03.427Z,101205.37
2018-05-13T06:51:31.785Z,101207.31
2018-05-13T06:54:00.027Z,101198.74
2018-05-13T06:56:29.815Z,101197.69
2018-05-13T06:58:58.795Z,101196.43
2018-05-13T07:01:27.210Z,101194.84
2018-05-13T07:03:55.514Z,101194.80
2018-05-13T07:06:26.212Z,101196.81
2018-05-13T07:08:55.035Z,101192.19
2018-05-13T07:11:24.148Z,101199.94
2018-05-13T07:13:53.487Z,101202.64
2018-05-13T07:16:23.588Z,101197.68
2018-05-13T07:18:53.178Z,101193.53
2018-05-13T07:21:22.927Z,101196.70
2018-05-13T07:23:51.199Z,101198.59
2018-05-13T07:26:19.679Z,101197.28
2018-05-13T07:28:48.744Z,101193.49
2018-05-13T07:31:17.791Z,101196.80
2018-05-13T07:33:46.761Z,101192.79
2018-05-13T07:36:15.681Z,101193.38
2018-05-13T07:38:44.850Z,101189.00
2018-05-13T07:41:13.161Z,101186.25
2018-05-13T07:43:42.154Z,101189.74
2018-05-13T07:46:11.149Z,101188.57
2018-05-13T07:48:40.335Z,101184.61
2018-05-13T07:51:08.760Z,101188.77
2018-05-13T07:53:38.550Z,101186.53
2018-05-13T07:56:08.730Z,101184.16
2018-05-13T07:58:38.410Z,101187.10
2018-05-13T08:01:07.471Z,101181.91
2018-05-13T08:03:35.962Z,101178.27
2018-05-13T08:06:04.436Z,101173.88
2018-05-13T08:08:32.699Z,101171.53
2018-05-13T08:11:00.991Z,101175.92
2018-05-13T08:13:29.930Z,101170.05
2018-05-13T08:15:58.206Z,101173.72
2018-05-13T08:18:26.483Z,101180.66
2018-05-13T08:20:54.882Z,101177.43
2018-05-13T08:23:23.606Z,101178.48
2018-05-13T08:25:51.950Z,101177.33
2018-05-13T08:28:20.975Z,101180.22
2018-05-13T08:30:49.302Z,101177.07
2018-05-13T08:33:19.227Z,101175.06
2018-05-13T08:35:48.352Z,101171.36
2018-05-13T08:38:16.740Z,101172.63
2018-05-13T08:40:45.824Z,101165.20
2018-05-13T08:43:15.551Z,101168.58
2018-05-13T08:45:44.346Z,101165.36
2018-05-13T08:48:13.646Z,101161.97
2018-05-13T08:50:41.929Z,101157.23
2018-05-13T08:53:10.414Z,101154.05
2018-05-13T08:55:39.594Z,101155.16
2018-05-13T08:58:07.975Z,101152.17
2018-05-13T09:00:36.766Z,101152.62
2018-05-13T09:03:05.054Z,101145.52
2018-05-13T09:05:33.936Z,101150.67
2018-05-13T09:08:02.544Z,101145.23
2018-05-13T09:10:32.887Z,101146.52
2018-05-13T09:13:02.475Z,101141.67
2018-05-13T09:15:31.544Z,101144.91
2018-05-13T09:18:01.010Z,101142.70
2018-05-13T09:20:30.098Z,101143.76
2018-05-13T09:22:59.350Z,101136.50
2018-05-13T09:25:28.114Z,101138.70
2018-05-13T09:27:56.648Z,101132.85
2018-05-13T09:30:26.047Z,101135.48
2018-05-13T09:32:54.376Z,101129.14
2018-05-13T09:35:22.626Z,101134.77
2018-05-13T09:37:51.679Z,101128.47
2018-05-13T09:40:20.078Z,101115.67
2018-05-13T09:42:49.259Z,101119.84
2018-05-13T09:45:17.634Z,101117.34
2018-05-13T09:47:46.007Z,101120.16
2018-05-13T09:50:15.064Z,101112.58
2018-05-13T09:52:45.339Z,101115.16
2018-05-13T09:55:14.282Z,101114.06
2018-05-13T09:57:43.376Z,101108.91
2018-05-13T10:00:11.819Z,101108.08
2018-05-13T10:02:40.101Z,101110.17
2018-05-13T10:05:09.021Z,101112.91
2018-05-13T10:07:37.323Z,101114.09
2018-05-13T10:10:05.622Z,101114.64
2018-05-13T10:12:33.917Z,101113.52
2018-05-13T10:15:02.223Z,101108.80
2018-05-13T10:17:32.013Z,101109.27
2018-05-13T10:20:01.286Z,101105.91
2018-05-13T10:22:29.994Z,101102.38
2018-05-13T10:24:58.286Z,101106.20
2018-05-13T10:27:27.023Z,101099.53
2018-05-13T10:29:55.343Z,101102.05
2018-05-13T10:32:23.843Z,101094.76
2018-05-13T10:34:52.225Z,101098.48
2018-05-13T10:37:21.177Z,101095.05
2018-05-13T10:39:51.129Z,101092.33
2018-05-13T10:42:19.849Z,101092.31
2018-05-13T10:44:48.990Z,101093.58
2018-05-13T10:47:17.283Z,101084.29
2018-05-13T10:49:45.668Z,101083.92
2018-05-13T10:52:14.740Z,101084.23
2018-05-13T10:54:43.019Z,101076.91
2018-05-13T10:57:11.883Z,101082.23
2018-05-13T10:59:42.234Z,101084.81
2018-05-13T11:02:10.947Z,101081.98
2018-05-13T11:04:39.449Z,101083.42
2018-05-13T11:07:08.001Z,101084.91
2018-05-13T11:09:37.030Z,101079.70
2018-05-13T11:12:06.723Z,101086.50
2018-05-13T11:14:35.033Z,101077.95
2018-05-13T11:17:04.243Z,101079.72
2018-05-13T11:19:33.907Z,101085.76
2018-05-13T11:22:03.054Z,101082.20
2018-05-13T11:24:32.719Z,101076.53
2018-05-13T11:27:01.763Z,101077.50
2018-05-13T11:29:30.055Z,101079.17
2018-05-13T11:31:58.868Z,101071.58
2018-05-13T11:34:27.460Z,101071.22
2018-05-13T11:36:55.752Z,101068.41
2018-05-13T11:39:24.435Z,101061.64
2018-05-13T11:41:52.744Z,101063.97
2018-05-13T11:44:21.814Z,101057.42
2018-05-13T11:46:50.086Z,101061.98
2018-05-13T11:49:18.614Z,101061.49
2018-05-13T11:51:47.231Z,101061.66
2018-05-13T11:54:15.908Z,101062.16
2018-05-13T11:56:44.420Z,101057.17
2018-05-13T11:59:12.700Z,101057.78
2018-05-13T12:01:41.707Z,101050.14
2018-05-13T12:04:10.063Z,101052.38
2018-05-13T12:06:39.356Z,101054.41
2018-05-13T12:09:07.641Z,101050.84
2018-05-13T12:11:36.546Z,101060.24
2018-05-13T12:14:05.334Z,101053.56
2018-05-13T12:16:34.794Z,101046.95
2018-05-13T12:19:03.675Z,101049.12
2018-05-13T12:21:32.835Z,101044.75
2018-05-13T12:24:02.403Z,101044.63
2018-05-13T12:26:31.411Z,101036.34
2018-05-13T12:28:59.836Z,101033.99
2018-05-13T12:31:28.191Z,101025.31
2018-05-13T12:33:57.169Z,101025.94
2018-05-13T12:36:25.971Z,101022.22
2018-05-13T12:38:54.732Z,101024.84
2018-05-13T12:41:23.838Z,101022.70
2018-05-13T12:43:52.353Z,101019.39
2018-05-13T12:46:20.647Z,101023.96
2018-05-13T12:48:49.475Z,101012.31
2018-05-13T12:51:18.394Z,101030.84
2018-05-13T12:53:46.708Z,101026.55
2018-05-13T12:56:15.843Z,101014.75
2018-05-13T12:58:45.769Z,101017.09
2018-05-13T13:01:14.896Z,101017.70
2018-05-13T13:03:43.296Z,101023.22
2018-05-13T13:06:11.512Z,101022.84
2018-05-13T13:08:39.821Z,101016.23
2018-05-13T13:11:08.198Z,101009.92
2018-05-13T13:13:36.571Z,101008.62
2018-05-13T13:16:05.036Z,101007.46
2018-05-13T13:18:33.364Z,100998.66
2018-05-13T13:21:02.154Z,100997.12
2018-05-13T13:23:30.511Z,100996.16
2018-05-13T13:25:58.886Z,100988.36
2018-05-13T13:28:27.908Z,100998.09
2018-05-13T13:30:56.986Z,100997.98
2018-05-13T13:33:25.385Z,100994.64
2018-05-13T13:35:53.850Z,101002.70
2018-05-13T13:38:22.330Z,100998.70
2018-05-13T13:40:50.611Z,100991.93
2018-05-13T13:43:19.558Z,100993.46
2018-05-13T13:45:47.858Z,100980.52
2018-05-13T13:48:16.138Z,100986.75
2018-05-13T13:50:44.966Z,100987.19
2018-05-13T13:53:13.739Z,100984.04
2018-05-13T13:55:42.038Z,100989.46
2018-05-13T13:58:11.498Z,100977.77
2018-05-13T14:00:39.816Z,100976.07
2018-05-13T14:03:09.499Z,100976.55
2018-05-13T14:05:39.605Z,100965.56
2018-05-13T14:08:09.104Z,100967.70
2018-05-13T14:10:37.919Z,100956.78
2018-05-13T14:13:06.283Z,100956.45
2018-05-13T14:15:34.667Z,100957.45
2018-05-13T14:18:03.730Z,100954.70
2018-05-13T14:20:34.246Z,100949.22
2018-05-13T14:28:58.847Z,100959.16
2018-05-13T14:31:27.149Z,100950.56
2018-05-13T14:33:56.081Z,100947.66
2018-05-13T14:36:25.122Z,100949.31
2018-05-13T14:38:54.024Z,100944.64
2018-05-13T14:41:22.330Z,100942.67
2018-05-13T14:43:52.257Z,100959.46
2018-05-13T14:46:21.324Z,100942.34
2018-05-13T14:48:50.406Z,100939.49
2018-05-13T14:51:18.897Z,100936.17
2018-05-13T14:53:47.961Z,100936.22
2018-05-13T14:56:16.415Z,100944.69
2018-05-13T14:58:45.150Z,100939.75
2018-05-13T15:01:13.470Z,100938.31
2018-05-13T15:03:43.206Z,100951.02
2018-05-13T15:06:11.550Z,100936.77
2018-05-13T15:08:41.482Z,100943.67
2018-05-13T15:11:11.083Z,100940.70
2018-05-13T15:13:41.950Z,100937.08
2018-05-13T15:16:11.210Z,100934.21
2018-05-13T15:18:40.716Z,100920.72
2018-05-13T15:21:10.583Z,100927.86
2018-05-13T15:23:40.070Z,100925.19
2018-05-13T15:26:09.306Z,100919.27
2018-05-13T15:28:37.724Z,100924.66
2018-05-13T15:31:06.798Z,100915.88
2018-05-13T15:33:35.114Z,100911.50
2018-05-13T15:36:03.976Z,100906.58
2018-05-13T15:38:32.395Z,100909.28
2018-05-13T15:41:00.842Z,100907.34
2018-05-13T15:43:29.856Z,100910.48
2018-05-13T15:45:58.957Z,100911.23
2018-05-13T15:48:28.130Z,100901.96
2018-05-13T15:50:57.124Z,100896.84
2018-05-13T15:53:25.493Z,100898.09
2018-05-13T15:55:53.973Z,100905.32
2018-05-13T15:58:22.276Z,100899.08
2018-05-13T16:00:51.544Z,100893.41
2018-05-13T16:03:20.677Z,100890.59
2018-05-13T16:05:49.746Z,100901.64
2018-05-13T16:08:18.321Z,100890.85
2018-05-13T16:10:46.653Z,100899.38
2018-05-13T16:13:15.630Z,100889.66
2018-05-13T16:15:44.680Z,100899.81
2018-05-13T16:18:12.981Z,100897.50
2018-05-13T16:20:41.540Z,100890.30
2018-05-13T16:23:10.267Z,100894.92
2018-05-13T16:25:38.569Z,100891.61
2018-05-13T16:28:06.887Z,100891.15
2018-05-13T16:30:36.201Z,100886.19
2018-05-13T16:33:04.903Z,100895.72
2018-05-13T16:35:33.996Z,100895.22
2018-05-13T16:38:02.298Z,100886.28
2018-05-13T16:40:31.401Z,100894.64
2018-05-13T16:43:02.132Z,100894.13
2018-05-13T16:45:31.216Z,100898.18
2018-05-13T16:48:00.332Z,100909.05
2018-05-13T16:50:30.845Z,100905.52
2018-05-13T16:52:59.178Z,100904.86
2018-05-13T16:55:27.474Z,100904.15
2018-05-13T16:57:55.870Z,100905.23
2018-05-13T17:00:25.024Z,100909.16
2018-05-13T17:02:53.505Z,100914.50
2018-05-13T17:05:21.792Z,100919.67
2018-05-13T17:07:50.091Z,100910.45
2018-05-13T17:10:18.598Z,100915.01
2018-05-13T17:12:46.906Z,100915.09
2018-05-13T17:15:15.667Z,100922.22
2018-05-13T17:17:44.572Z,100917.66
2018-05-13T17:20:14.413Z,100933.34
2018-05-13T17:22:42.845Z,100935.28
2018-05-13T17:25:11.173Z,100948.45
2018-05-13T17:27:39.504Z,100943.23
2018-05-13T17:30:08.181Z,100946.72
2018-05-13T17:32:36.943Z,100949.14
2018-05-13T17:35:05.229Z,100954.25
2018-05-13T17:37:33.763Z,100962.60
2018-05-13T17:40:02.859Z,100955.61
2018-05-13T17:42:31.922Z,100949.92
2018-05-13T17:45:00.272Z,100957.30
2018-05-13T17:47:28.575Z,100956.67
2018-05-13T17:49:57.505Z,100958.61
2018-05-13T17:52:27.237Z,100959.10
2018-05-13T17:54:55.675Z,100966.75
2018-05-13T17:57:24.104Z,100960.95
2018-05-13T17:59:53.059Z,100971.59
2018-05-13T18:02:22.453Z,100969.66
2018-05-13T18:04:51.555Z,100981.56
2018-05-13T18:07:20.841Z,100980.38
2018-05-13T18:09:49.145Z,100995.47
2018-05-13T18:12:18.345Z,100990.55
2018-05-13T18:14:47.743Z,100991.59
2018-05-13T18:17:16.049Z,100999.56
2018-05-13T18:19:44.337Z,100997.73
2018-05-13T18:22:12.675Z,100999.45
2018-05-13T18:24:41.097Z,100999.04
2018-05-13T18:27:09.301Z,100998.91
2018-05-13T18:29:38.028Z,100996.59
2018-05-13T18:32:07.090Z,100995.92
2018-05-13T18:34:36.232Z,100999.25
2018-05-13T18:37:05.603Z,100998.12
2018-05-13T18:39:33.975Z,100999.03
2018-05-13T18:42:02.294Z,101002.18
2018-05-13T18:44:31.413Z,101014.96
2018-05-13T18:47:00.575Z,101013.58
2018-05-13T18:49:29.664Z,101016.67
2018-05-13T18:51:58.284Z,101018.62
2018-05-13T18:54:26.614Z,101017.88
2018-05-13T18:56:54.936Z,101024.88
2018-05-13T18:59:24.050Z,101023.33
2018-05-13T19:01:52.410Z,101029.33
2018-05-13T19:04:21.540Z,101030.34
2018-05-13T19:06:49.876Z,101025.88
2018-05-13T19:09:19.426Z,101027.06
2018-05-13T19:11:48.524Z,101029.05
2018-05-13T19:14:17.159Z,101039.04
2018-05-13T19:16:45.480Z,101044.19
2018-05-13T19:19:13.885Z,101037.36
2018-05-13T19:21:42.700Z,101050.41
2018-05-13T19:24:11.079Z,101049.64
2018-05-13T19:26:40.291Z,101054.55
2018-05-13T19:29:09.369Z,101059.41
2018-05-13T19:31:38.610Z,101065.50
2018-05-13T19:34:07.618Z,101064.89
2018-05-13T19:36:36.286Z,101067.33
2018-05-13T19:39:04.818Z,101077.45
2018-05-13T19:41:33.119Z,101071.83
2018-05-13T19:44:01.550Z,101076.73
2018-05-13T19:46:29.837Z,101089.89
2018-05-13T19:48:58.769Z,101097.30
2018-05-13T19:51:27.816Z,101099.94
2018-05-13T19:53:56.116Z,101105.38
2018-05-13T19:56:24.518Z,101102.92
2018-05-13T19:58:53.681Z,101099.45
2018-05-13T20:01:22.080Z,101095.65
2018-05-13T20:03:50.585Z,101099.08
2018-05-13T20:06:19.601Z,101099.73
2018-05-13T20:08:49.633Z,101103.83
2018-05-13T20:11:19.298Z,101098.36
2018-05-13T20:13:47.929Z,101110.00
2018-05-13T20:16:16.755Z,101109.58
2018-05-13T20:18:45.089Z,101107.78
2018-05-13T20:21:14.374Z,101110.33
2018-05-13T20:23:42.989Z,101109.58
2018-05-13T20:26:12.159Z,101111.48
2018-05-13T20:28:40.493Z,101115.30
2018-05-13T20:31:08.782Z,101112.85
2018-05-13T20:33:37.243Z,101120.36
2018-05-13T20:36:05.677Z,101119.31
2018-05-13T20:38:34.249Z,101118.47
2018-05-13T20:41:02.614Z,101121.45
2018-05-13T20:43:31.314Z,101114.89
2018-05-13T20:45:59.643Z,101119.30
2018-05-13T20:48:27.954Z,101121.34
2018-05-13T20:50:56.285Z,101116.34
2018-05-13T20:53:25.439Z,101117.20
2018-05-13T20:55:54.054Z,101122.44
2018-05-13T20:58:23.112Z,101127.38
2018-05-13T21:00:51.525Z,101125.73
2018-05-13T21:03:21.332Z,101131.30
2018-05-13T21:05:49.947Z,101140.58
2018-05-13T21:08:19.038Z,101134.57
2018-05-13T21:10:48.169Z,101130.87
2018-05-13T21:13:16.471Z,101131.00
2018-05-13T21:15:45.124Z,101131.67
2018-05-13T21:18:13.483Z,101135.48
2018-05-13T21:20:42.659Z,101138.55
2018-05-13T21:23:11.729Z,101137.00
2018-05-13T21:25:40.018Z,101138.72
2018-05-13T21:28:08.386Z,101141.24
2018-05-13T21:30:36.724Z,101148.16
2018-05-13T21:33:05.036Z,101146.94
2018-05-13T21:35:33.935Z,101150.29
2018-05-13T21:38:02.244Z,101147.58
2018-05-13T21:40:30.550Z,101142.92
2018-05-13T21:42:59.381Z,101151.77
2018-05-13T21:45:27.728Z,101147.53
2018-05-13T21:47:56.325Z,101151.87
2018-05-13T21:50:24.631Z,101154.42
2018-05-13T21:52:53.055Z,101150.71
2018-05-13T21:55:22.145Z,101144.25
2018-05-13T21:57:51.709Z,101153.69
2018-05-13T22:00:20.001Z,101158.72
2018-05-13T22:02:48.571Z,101152.81
2018-05-13T22:05:16.889Z,101157.94
2018-05-13T22:07:46.028Z,101156.83
2018-05-13T22:10:14.349Z,101159.17
2018-05-13T22:12:42.848Z,101159.32
2018-05-13T22:15:12.719Z,101160.48
2018-05-13T22:17:41.099Z,101154.26
2018-05-13T22:20:09.457Z,101156.78
2018-05-13T22:22:37.779Z,101158.96
2018-05-13T22:25:06.162Z,101154.73
2018-05-13T22:27:34.491Z,101155.22
2018-05-13T22:30:02.939Z,101152.78
2018-05-13T22:32:32.027Z,101150.62
2018-05-13T22:35:03.269Z,101154.52
2018-05-13T22:37:32.091Z,101150.77
2018-05-13T22:40:01.041Z,101149.56
2018-05-13T22:42:29.518Z,101155.04
2018-05-13T22:44:57.859Z,101160.98
2018-05-13T22:47:26.632Z,101163.06
2018-05-13T22:49:55.195Z,101158.98
2018-05-13T22:52:25.396Z,101164.36
2018-05-13T22:54:54.403Z,101158.47
2018-05-13T22:57:22.761Z,101161.48
2018-05-13T22:59:51.809Z,101161.84
2018-05-13T23:02:20.883Z,101160.70
2018-05-13T23:04:49.408Z,101160.29
2018-05-13T23:07:17.727Z,101160.80
2018-05-13T23:09:47.354Z,101162.41
2018-05-13T23:12:17.329Z,101162.53
2018-05-13T23:14:45.744Z,101156.69
2018-05-13T23:17:14.161Z,101159.31
2018-05-13T23:19:42.599Z,101158.70
2018-05-13T23:22:18.390Z,101168.38
2018-05-13T23:24:47.562Z,101160.02
2018-05-13T23:27:15.975Z,101165.48
2018-05-13T23:29:45.364Z,101159.70
2018-05-13T23:32:14.850Z,101156.78
2018-05-13T23:34:43.971Z,101166.88
2018-05-13T23:37:13.030Z,101164.42
2018-05-13T23:39:41.449Z,101162.39
2018-05-13T23:42:10.525Z,101161.55
2018-05-13T23:44:38.835Z,101164.51
2018-05-13T23:47:07.147Z,101167.45
2018-05-13T23:49:35.539Z,101167.40
2018-05-13T23:52:03.945Z,101163.25
2018-05-13T23:54:33.742Z,101164.94
2018-05-13T23:57:02.058Z,101162.42
2018-05-13T23:59:31.124Z,101162.89
